This is the latest recevied weather packets stored in our database for station/object W4DEX-2. If no packets are shown the sender has not sent any weather packets the latest 10 day(s).
| Time | Temp. | Humidity | Pressure | Rain* | Wind** | Luminosity | Snow |
|---|---|---|---|---|---|---|---|
| 1778095802 | 21.67° C | 80% | 1012.2 hPa | 0 mm | 4.92 m/s, 178° | - | - |
| 1778095503 | 21.11° C | 79% | 1012.1 hPa | 0 mm | 4.47 m/s, 175° | - | - |
| 1778095202 | 21.11° C | 81% | 1012.3 hPa | 0 mm | 4.92 m/s, 176° | - | - |
| 1778094902 | 21.11° C | 83% | 1012.1 hPa | 0 mm | 4.92 m/s, 178° | - | - |
| 1778094302 | 19.44° C | 86% | 1012.6 hPa | 0 mm | 4.47 m/s, 171° | - | - |
| 1778094002 | 18.89° C | 86% | 1012.3 hPa | 0 mm | 4.47 m/s, 173° | - | - |
| 1778093702 | 18.33° C | 88% | 1012.1 hPa | 1.02 mm | 4.47 m/s, 182° | - | - |
| 1778093402 | 18.33° C | 88% | 1012.2 hPa | 1.02 mm | 4.92 m/s, 176° | - | - |
| 1778093102 | 17.78° C | 88% | 1012.6 hPa | 0 mm | 4.92 m/s, 174° | - | - |
| 1778092502 | 17.78° C | 84% | 1013.3 hPa | 25.15 mm | 4.92 m/s, 181° | - | - |
| 1778092202 | 17.78° C | 82% | 1013.7 hPa | 17.78 mm | 4.92 m/s, 170° | - | - |
| 1778091903 | 18.33° C | 80% | 1014.4 hPa | 4.57 mm | 3.13 m/s, 193° | - | - |
| 1778091602 | 18.89° C | 79% | 1014.2 hPa | 1.02 mm | 3.13 m/s, 183° | - | - |
| 1778091002 | 18.89° C | 78% | 1014.1 hPa | 0 mm | 4.47 m/s, 180° | - | - |
| 1778090702 | 18.89° C | 78% | 1014.1 hPa | 0 mm | 4.47 m/s, 180° | - | - |
| 1778090403 | 18.89° C | 78% | 1014.3 hPa | 0 mm | 4.02 m/s, 180° | - | - |
| 1778090103 | 18.89° C | 79% | 1014.4 hPa | 0 mm | 4.47 m/s, 172° | - | - |
| 1778089803 | 18.89° C | 78% | 1014.4 hPa | 0 mm | 4.47 m/s, 176° | - | - |
| 1778089503 | 18.89° C | 79% | 1014.9 hPa | 0 mm | 3.58 m/s, 185° | - | - |
| 1778089207 | 19.44° C | 79% | 1014.9 hPa | 0 mm | 4.47 m/s, 182° | - | - |
| 1778088902 | 19.44° C | 77% | 1014.4 hPa | 0 mm | 4.47 m/s, 180° | - | - |
| 1778088603 | 19.44° C | 76% | 1014.2 hPa | 7.11 mm | 4.92 m/s, 183° | - | - |
| 1778088303 | 20° C | 72% | 1014.3 hPa | 8.38 mm | 5.36 m/s, 181° | - | - |
| 1778088002 | 21.67° C | 65% | 1014.4 hPa | 0 mm | 4.92 m/s, 180° | - | - |
| 1778087402 | 22.22° C | 61% | 1013.9 hPa | 0 mm | 4.92 m/s, 180° | - | - |
* Rain latest hour (hover to see other rain measurements)
** Current wind speed in m/s (hover to see current wind gust speed)